This is the latest recevied weather packets stored in our database for station/object BMCB-22. If no packets are shown the sender has not sent any weather packets the latest 10 day(s).
| Time | Temp. | Humidity | Pressure | Rain* | Wind** | Luminosity | Snow |
|---|---|---|---|---|---|---|---|
| 1777563060 | 16.11° C | 25% | 1023.6 hPa | 0 mm | - | 456 W/m² | - |
| 1777562456 | 16.11° C | 27% | 1023.6 hPa | 0 mm | - | 480 W/m² | - |
| 1777561854 | 16.11° C | 28% | 1023.7 hPa | 0 mm | - | 498 W/m² | - |
| 1777555259 | 15.56° C | 26% | 1024.1 hPa | 0 mm | - | 704 W/m² | - |
| 1777554657 | 15.56° C | 28% | 1024 hPa | 0 mm | - | 716 W/m² | - |
| 1777552857 | 15° C | 27% | 1024.3 hPa | 0 mm | - | 748 W/m² | - |
| 1777551058 | 15° C | 31% | 1024.5 hPa | 0 mm | - | 766 W/m² | - |
| 1777548657 | 14.44° C | 37% | 1024.9 hPa | 0 mm | - | 770 W/m² | - |
| 1777544457 | 13.33° C | 37% | 1025.4 hPa | 0 mm | - | 740 W/m² | - |
| 1777536058 | 10° C | 45% | 1025.8 hPa | 0 mm | - | 502 W/m² | - |
| 1777534256 | 8.89° C | 45% | 1026.2 hPa | 0 mm | - | 424 W/m² | - |
| 1777533657 | 8.33° C | 46% | 1026.4 hPa | 0 mm | - | 398 W/m² | - |
| 1777533058 | 7.78° C | 47% | 1026.4 hPa | 0 mm | - | 370 W/m² | - |
| 1777532455 | 7.78° C | 47% | 1026.5 hPa | 0 mm | - | 342 W/m² | - |
| 1777522254 | 5° C | 48% | 1026 hPa | 0 mm | - | 0 W/m² | - |
| 1777521053 | 5.56° C | 48% | 1026.1 hPa | 0 mm | - | 0 W/m² | - |
| 1777519256 | 5.56° C | 50% | 1026.4 hPa | 0 mm | - | 0 W/m² | - |
| 1777515655 | 5.56° C | 51% | 1026.3 hPa | 0 mm | - | 0 W/m² | - |
| 1777506060 | 7.22° C | 49% | 1026 hPa | 0 mm | - | 0 W/m² | - |
| 1777504259 | 7.78° C | 47% | 1025.8 hPa | 0 mm | - | 0 W/m² | - |
| 1777501261 | 8.33° C | 45% | 1025.3 hPa | 0 mm | - | 0 W/m² | - |
| 1777498866 | 8.89° C | 44% | 1025.1 hPa | 0 mm | - | 0 W/m² | - |
| 1777496465 | 10° C | 41% | 1024.8 hPa | 0 mm | - | 0 W/m² | - |
| 1777492867 | 10.56° C | 39% | 1024.5 hPa | 0 mm | - | 0 W/m² | - |
| 1777486864 | 13.33° C | 36% | 1023.2 hPa | 0 mm | - | 32 W/m² | - |
* Rain latest hour (hover to see other rain measurements)
** Current wind speed in m/s (hover to see current wind gust speed)